Latest Weather Observations for Port Augusta

IDS60801

Issued at 12:02 pm CDT Monday 22 December 2014 (issued every 30 minutes, with the page automatically refreshed every 10 minutes)

About weather observations | Map of weather stations | Latest weather observations for SA | Other Formats
Station Details ID: 018201 Name: PORT AUGUSTA AERO Lat: -32.51 Lon: 137.72 Height: 13.97 m
Data from the previous 72 hours. | See also: Recent months at Port Augusta
Date/Time
CDT
Temp
°C
App
Temp
°C
Dew
Point
Rel
Hum
%
Delta-T
°C
Wind Press
QNH
hPa
Press
MSL
hPa
Rain
since 9 am
mm
Dir
 
Spd
km/h
Gust
km/h
Spd
kts
Gust
kts
22/12:00pm 25.6 23.4 17.8 62 4.9 SSE 26 35 14 19 1008.5 1008.4 0.0
22/11:55am 25.2 23.0 18.6 67 4.2 SSE 28 46 15 25 1008.4 - 0.0
22/11:30am 23.9 20.5 19.0 74 3.1 SE 35 46 19 25 1006.8 - 0.0
22/11:00am 23.0 19.7 18.3 75 2.9 SSE 33 46 18 25 1007.9 - 0.0
22/10:30am 22.3 21.3 18.9 81 2.1 SE 22 35 12 19 1008.6 - 0.0
22/10:00am 23.3 23.4 17.5 70 3.6 E 13 19 7 10 1010.1 - 0.0
22/09:30am 23.0 23.9 17.5 71 3.4 SE 9 15 5 8 1008.8 - 0.0
22/09:00am 23.2 22.4 17.2 69 3.7 ESE 17 20 9 11 1008.2 1008.1 0.0
22/08:30am 23.7 22.9 17.2 67 4.0 ESE 17 22 9 12 1007.2 - 0.0
22/08:00am 24.5 24.1 16.2 60 5.1 SE 13 19 7 10 1006.8 - 0.0
22/07:30am 24.5 22.8 14.6 54 5.9 SW 17 24 9 13 1006.1 - 0.0
22/07:00am 23.7 24.2 16.5 64 4.4 SE 9 15 5 8 1005.6 - 0.0
22/06:30am 23.8 23.3 15.8 61 4.8 SE 13 17 7 9 1005.2 - 0.0
22/06:00am 24.3 23.9 12.9 49 6.6 SE 7 11 4 6 1005.1 1005.0 0.0
22/05:30am 24.2 24.3 11.5 45 7.2 SE 2 7 1 4 1004.9 - 0.0
22/05:00am 24.6 24.1 12.5 46 7.0 SE 7 9 4 5 1004.8 - 0.0
22/04:30am 24.8 24.0 11.7 44 7.4 ESE 7 9 4 5 1004.7 - 0.0
22/04:00am 26.2 24.6 11.5 40 8.4 SSE 11 15 6 8 1005.0 - 0.0
22/03:30am 26.7 25.1 11.6 39 8.6 SE 11 15 6 8 1005.1 - 0.0
22/03:00am 27.2 25.1 11.2 36 9.1 SE 13 17 7 9 1005.4 1005.3 0.0
22/02:30am 27.5 25.0 11.1 36 9.3 SE 15 20 8 11 1005.6 - 0.0
22/02:00am 27.3 24.1 11.3 37 9.1 SSE 19 22 10 12 1006.1 - 0.0
22/01:30am 26.7 22.9 12.4 41 8.3 SSE 24 32 13 17 1006.5 - 0.0
22/01:00am 25.6 22.2 13.8 48 7.0 SE 24 35 13 19 1007.2 - 0.0
22/12:30am 25.6 20.7 13.8 48 7.0 SE 32 43 17 23 1007.3 - 0.0
22/12:00am 25.7 21.6 14.8 51 6.5 SE 30 43 16 23 1008.0 1007.9 0.0
 
Date/Time
CDT
Temp
°C
App
Temp
°C
Dew
Point
Rel
Hum
%
Delta-T
°C
Wind Press
QNH
hPa
Press
MSL
hPa
Rain
since 9 am
mm
Dir
 
Spd
km/h
Gust
km/h
Spd
kts
Gust
kts
21/11:30pm 25.8 22.4 15.8 54 6.1 SE 28 44 15 24 1008.7 - 0.0
21/11:00pm 27.2 22.1 14.9 47 7.4 SE 35 52 19 28 1008.6 - 0.0
21/10:52pm 27.5 23.2 14.5 45 7.8 SSE 30 52 16 28 1008.9 - 0.0
21/10:30pm 29.5 28.0 9.1 28 11.3 NNW 7 11 4 6 1009.7 - 0.0
21/10:00pm 30.4 27.1 8.2 25 12.2 NW 15 19 8 10 1010.0 - 0.0
21/09:30pm 31.3 27.7 8.3 24 12.7 NW 17 24 9 13 1009.8 - 0.0
21/09:00pm 31.9 26.9 8.2 23 13.2 WNW 24 32 13 17 1009.5 1009.4 0.0
21/08:30pm 32.3 27.3 7.9 22 13.5 WNW 24 30 13 16 1009.3 - 0.0
21/08:00pm 33.0 27.2 7.8 21 14.0 WNW 28 37 15 20 1009.0 - 0.0
21/07:30pm 33.8 26.1 7.0 19 14.7 NW 37 50 20 27 1008.5 - 0.0
21/07:00pm 34.8 26.9 6.2 17 15.6 NW 37 48 20 26 1007.9 - 0.0
21/06:30pm 35.8 27.5 2.0 12 17.3 WNW 35 46 19 25 1007.3 - 0.0
21/06:00pm 36.7 28.5 -1.3 9 18.6 WNW 32 44 17 24 1006.9 1006.8 0.0
21/05:50pm 36.8 26.7 -2.8 8 18.9 WNW 41 46 22 25 1006.7 - 0.0
21/05:30pm 38.2 32.7 -1.8 8 19.6 N 17 32 9 17 1006.6 - 0.0
21/05:00pm 38.5 33.1 -1.6 8 19.7 N 17 32 9 17 1006.8 - 0.0
21/04:30pm 37.5 31.8 -0.7 9 19.0 N 19 26 10 14 1007.2 - 0.0
21/04:00pm 38.0 32.4 -0.3 9 19.2 NW 19 28 10 15 1007.7 - 0.0
21/03:30pm 38.3 31.5 -1.7 8 19.6 N 24 35 13 19 1008.0 - 0.0
21/03:00pm 37.9 32.0 -2.0 8 19.5 NNW 19 32 10 17 1008.2 1008.1 0.0
21/02:30pm 38.2 32.4 -1.8 8 19.6 NNW 19 32 10 17 1008.5 - 0.0
21/02:00pm 38.7 34.8 -1.4 8 19.8 NE 9 32 5 17 1009.1 - 0.0
21/01:30pm 37.8 31.9 -0.5 9 19.1 NNW 20 35 11 19 1009.7 - 0.0
21/01:00pm 37.9 30.9 -0.4 9 19.1 NNW 26 35 14 19 1010.3 - 0.0
21/12:30pm 37.2 29.8 -0.9 9 18.8 N 28 44 15 24 1010.8 - 0.0
21/12:00pm 36.7 29.4 0.1 10 18.3 N 28 37 15 20 1011.0 1010.9 0.0
21/11:30am 36.2 28.9 -0.2 10 18.1 N 28 37 15 20 1011.1 - 0.0
21/11:00am 35.0 27.0 0.2 11 17.2 N 32 41 17 22 1011.3 - 0.0
21/10:30am 33.8 27.3 0.5 12 16.5 N 24 39 13 21 1011.6 - 0.0
21/10:00am 32.5 27.5 1.6 14 15.4 N 17 20 9 11 1011.9 - 0.0
21/09:30am 30.3 26.6 2.5 17 13.9 NNW 11 17 6 9 1012.1 - 0.0
21/09:00am 30.0 27.3 3.9 19 13.3 N 7 17 4 9 1011.8 1011.7 0.0
21/08:30am 28.5 25.9 4.1 21 12.4 NNW 7 13 4 7 1011.9 - 0.0
21/08:00am 26.7 24.3 4.5 24 11.2 NW 6 9 3 5 1011.7 - 0.0
21/07:30am 23.7 22.2 5.1 30 9.3 SSE 2 6 1 3 1011.2 - 0.0
21/07:00am 21.7 18.3 6.0 36 7.9 W 13 15 7 8 1011.0 - 0.0
21/06:30am 17.3 14.2 5.6 46 5.7 WSW 11 13 6 7 1010.5 - 0.0
21/06:00am 16.7 14.5 6.2 50 5.1 W 7 11 4 6 1010.2 1010.1 0.0
21/05:30am 16.5 15.1 5.5 48 5.3 S 2 6 1 3 1009.9 - 0.0
21/05:00am 17.5 15.3 6.4 48 5.5 SSW 7 9 4 5 1009.8 - 0.0
21/04:30am 18.0 15.9 6.5 47 5.7 WSW 7 11 4 6 1009.9 - 0.0
21/04:00am 19.2 17.5 8.2 49 5.7 WNW 7 11 4 6 1010.0 - 0.0
21/03:30am 19.7 18.3 8.7 49 5.8 N 6 7 3 4 1010.1 - 0.0
21/03:00am 20.4 20.2 9.0 48 6.0 CALM 0 6 0 3 1010.2 1010.1 0.0
21/02:30am 20.3 18.8 10.7 54 5.2 ESE 9 11 5 6 1010.5 - 0.0
21/02:00am 21.2 20.3 10.7 51 5.7 SE 6 7 3 4 1010.6 - 0.0
21/01:30am 22.3 20.7 11.7 51 5.9 ESE 11 15 6 8 1010.7 - 0.0
21/01:00am 23.6 21.5 11.3 46 6.9 ESE 13 17 7 9 1011.0 - 0.0
21/12:30am 24.8 21.8 9.1 37 8.5 ESE 15 20 8 11 1010.9 - 0.0
21/12:00am 25.4 21.8 8.4 34 9.1 SE 17 20 9 11 1011.0 1010.9 0.0
 
Date/Time
CDT
Temp
°C
App
Temp
°C
Dew
Point
Rel
Hum
%
Delta-T
°C
Wind Press
QNH
hPa
Press
MSL
hPa
Rain
since 9 am
mm
Dir
 
Spd
km/h
Gust
km/h
Spd
kts
Gust
kts
20/11:30pm 25.4 22.1 9.7 37 8.6 ESE 17 20 9 11 1011.3 - 0.0
20/11:00pm 25.8 21.9 5.4 27 10.4 ESE 15 19 8 10 1011.3 - 0.0
20/10:30pm 27.6 22.5 4.0 22 11.9 SE 20 26 11 14 1011.3 - 0.0
20/10:00pm 28.0 22.6 4.3 22 12.0 SSE 22 28 12 15 1011.2 - 0.0
20/09:30pm 28.5 22.5 3.4 20 12.6 SSE 24 30 13 16 1011.1 - 0.0
20/09:00pm 28.8 23.2 3.6 20 12.7 SSE 22 28 12 15 1011.1 1011.0 0.0
20/08:30pm 29.3 23.4 4.0 20 12.9 SSE 24 30 13 16 1011.1 - 0.0
20/08:00pm 29.8 24.0 4.4 20 13.1 SSE 24 32 13 17 1011.1 - 0.0
20/07:30pm 30.7 24.8 3.7 18 13.8 SE 24 33 13 18 1010.9 - 0.0
20/07:00pm 31.6 26.2 4.4 18 14.1 SE 22 32 12 17 1010.9 - 0.0
20/06:30pm 32.6 27.4 3.5 16 15.0 SE 20 28 11 15 1011.0 - 0.0
20/06:00pm 32.7 26.9 4.5 17 14.8 SE 24 30 13 16 1010.9 1010.8 0.0
20/05:30pm 32.9 27.8 6.2 19 14.4 SE 22 28 12 15 1011.0 - 0.0
20/05:00pm 32.6 27.6 4.4 17 14.7 SE 20 28 11 15 1011.3 - 0.0
20/04:30pm 33.2 28.4 4.9 17 15.0 SE 19 28 10 15 1011.7 - 0.0
20/04:00pm 33.0 27.5 3.9 16 15.1 ESE 22 32 12 17 1012.1 - 0.0
20/03:30pm 33.0 29.4 2.9 15 15.4 SW 11 20 6 11 1012.6 - 0.0
20/03:00pm 32.5 29.2 4.3 17 14.7 S 11 19 6 10 1013.3 1013.2 0.0
20/02:30pm 33.2 29.2 3.1 15 15.5 E 13 20 7 11 1013.5 - 0.0
20/02:00pm 32.4 28.3 2.5 15 15.1 SSW 13 19 7 10 1014.1 - 0.0
20/01:30pm 30.8 27.6 2.9 17 14.1 S 9 20 5 11 1014.7 - 0.0
20/01:00pm 31.3 27.8 3.4 17 14.2 WSW 11 20 6 11 1015.2 - 0.0
20/12:30pm 30.0 27.3 3.9 19 13.3 N 7 13 4 7 1015.6 - 0.0
20/12:00pm 28.9 25.8 3.7 20 12.7 NE 9 19 5 10 1015.9 1015.8 0.0
20/11:30am 28.5 25.5 4.1 21 12.4 NW 9 19 5 10 1016.6 - 0.0
20/11:00am 27.4 23.2 3.8 22 11.8 NW 15 20 8 11 1016.9 - 0.0
20/10:30am 27.1 23.8 4.8 24 11.4 NNW 11 20 6 11 1017.2 - 0.0
20/10:00am 26.9 24.2 5.8 26 10.9 ESE 9 17 5 9 1017.5 - 0.0
20/09:30am 24.9 21.9 6.1 30 9.7 SE 11 19 6 10 1017.7 - 0.0
20/09:00am 24.4 20.7 6.2 31 9.3 ESE 15 22 8 12 1017.8 1017.7 0.0
20/08:30am 23.7 18.9 5.6 31 9.2 E 20 26 11 14 1017.8 - 0.0
20/08:00am 22.2 17.5 6.0 35 8.2 E 20 26 11 14 1017.6 - 0.0
20/07:30am 20.7 17.2 8.7 46 6.3 SE 17 22 9 12 1017.6 - 0.0
20/07:00am 19.2 16.6 9.4 53 5.2 SE 13 17 7 9 1017.6 - 0.0
20/06:30am 17.8 15.6 9.4 58 4.4 SE 11 15 6 8 1017.5 - 0.0
20/06:00am 17.9 15.0 9.8 59 4.3 SE 15 22 8 12 1017.0 1016.9 0.0
20/05:30am 17.9 15.0 9.8 59 4.3 SSE 15 20 8 11 1016.8 - 0.0
20/05:00am 17.9 14.9 10.8 63 3.8 SSE 17 20 9 11 1016.6 - 0.0
20/04:30am 17.9 14.9 10.5 62 4.0 SSE 17 22 9 12 1016.5 - 0.0
20/04:00am 18.0 14.8 12.0 68 3.3 SSE 20 26 11 14 1016.5 - 0.0
20/03:30am 17.9 15.3 11.9 68 3.3 S 17 22 9 12 1016.8 - 0.0
20/03:00am 18.2 14.6 12.0 67 3.4 SSE 22 32 12 17 1016.6 1016.5 0.0
20/02:30am 18.3 13.7 11.1 63 3.9 SSE 26 32 14 17 1016.4 - 0.0
20/02:00am 18.3 13.8 10.2 59 4.3 SSE 24 32 13 17 1016.8 - 0.0
20/01:30am 18.2 13.5 9.3 56 4.7 S 24 35 13 19 1017.4 - 0.0
20/01:00am 17.9 13.4 8.5 54 4.8 S 22 30 12 16 1017.9 - 0.0
20/12:30am 19.2 14.5 9.4 53 5.2 S 24 39 13 21 1018.1 - 0.0
20/12:00am 19.6 15.0 9.5 52 5.3 SSE 24 32 13 17 1018.2 1018.1 0.0
 
Date/Time
CDT
Temp
°C
App
Temp
°C
Dew
Point
Rel
Hum
%
Delta-T
°C
Wind Press
QNH
hPa
Press
MSL
hPa
Rain
since 9 am
mm
Dir
 
Spd
km/h
Gust
km/h
Spd
kts
Gust
kts
19/11:30pm 19.9 15.6 9.5 51 5.5 S 22 32 12 17 1018.4 - 0.0
19/11:00pm 20.5 16.0 10.0 51 5.7 S 24 33 13 18 1018.6 - 0.0
19/10:30pm 20.2 14.4 10.9 55 5.1 S 32 41 17 22 1018.7 - 0.0
19/10:00pm 20.1 15.3 11.8 59 4.6 S 28 37 15 20 1018.5 - 0.0
19/09:30pm 20.0 14.8 11.7 59 4.6 S 30 41 16 22 1018.6 - 0.0
19/09:00pm 20.2 14.4 11.4 57 4.8 S 33 44 18 24 1018.3 1018.2 0.0
19/08:30pm 20.8 14.8 10.9 53 5.4 S 33 46 18 25 1017.9 - 0.0
19/08:00pm 21.8 14.8 10.0 47 6.4 SSE 37 48 20 26 1017.6 - 0.0
19/07:30pm 23.0 16.2 9.4 42 7.3 SSE 35 46 19 25 1017.5 - 0.0
19/07:00pm 23.7 16.9 9.3 40 7.8 SSE 35 46 19 25 1017.2 - 0.0
19/06:30pm 24.2 16.6 9.0 38 8.2 SSE 39 48 21 26 1016.9 - 0.0
19/06:00pm 24.6 16.1 8.5 36 8.6 SSE 43 54 23 29 1016.5 1016.4 0.0
19/05:30pm 24.7 17.5 9.0 37 8.5 SE 37 48 20 26 1016.7 - 0.0
19/05:00pm 25.3 18.4 8.7 35 9.0 SE 35 46 19 25 1016.9 - 0.0
19/04:30pm 25.8 18.7 7.9 32 9.6 SSE 35 46 19 25 1017.1 - 0.0
19/04:00pm 25.9 19.1 7.5 31 9.8 SE 33 43 18 23 1017.3 - 0.0
19/03:30pm 25.5 18.5 6.2 29 10.0 SSE 32 41 17 22 1017.6 - 0.0
19/03:00pm 25.2 18.0 4.9 27 10.2 SE 32 43 17 23 1017.7 1017.6 0.0
19/02:30pm 26.9 19.7 5.2 25 11.1 SE 32 41 17 22 1018.1 - 0.0
19/02:00pm 25.6 19.6 5.2 27 10.4 SE 26 39 14 21 1018.3 - 0.0
19/01:30pm 25.8 20.6 5.4 27 10.4 SSE 22 30 12 16 1018.6 - 0.0
19/01:00pm 25.1 20.0 5.8 29 9.9 SE 22 39 12 21 1019.0 - 0.0
19/12:30pm 24.5 19.4 5.8 30 9.5 SSE 22 32 12 17 1019.1 - 0.0

Other Formats:

Comma delimited format used in spreadsheet applications
http://www.bom.gov.au/fwo/IDS60801/IDS60801.95666.axf

JavaScript Object Notation format (JSON) in row-major order
http://www.bom.gov.au/fwo/IDS60801/IDS60801.95666.json